Time;durP1;ratioP1;P1;durP2;ratioP2;P2;SDS_P1;SDS_P2;PMS_P1;PMS_P2;Temp;Humidity;BMP_temperature;BMP_pressure;BME280_temperature;BME280_humidity;BME280_pressure;Samples;Min_cycle;Max_cycle;Signal;HPM_P1;HPM_P2
2023/08/24 00:02:00;;;;;;;6.13;3.20;;;18.80;99.90;;;;;;5024562;28;20018;-73
2023/08/24 00:04:26;;;;;;;9.70;3.42;;;18.80;99.90;;;;;;5023097;28;20034;-73
2023/08/24 00:06:51;;;;;;;7.45;3.50;;;18.80;99.90;;;;;;5022650;28;20025;-73
2023/08/24 00:09:17;;;;;;;7.63;3.55;;;18.70;99.90;;;;;;5024912;28;20034;-72
2023/08/24 00:11:42;;;;;;;10.15;4.32;;;18.70;99.90;;;;;;5025303;28;20061;-72
2023/08/24 00:14:09;;;;;;;8.48;3.72;;;18.70;99.90;;;;;;5024569;28;20068;-72
2023/08/24 00:16:34;;;;;;;8.60;3.75;;;18.60;99.90;;;;;;5024329;28;20033;-72
2023/08/24 00:19:00;;;;;;;7.78;3.88;;;18.60;99.90;;;;;;5023589;28;20030;-74
2023/08/24 00:21:25;;;;;;;10.50;3.97;;;18.50;99.90;;;;;;5024173;28;20049;-72
2023/08/24 00:23:52;;;;;;;10.93;3.90;;;18.50;99.90;;;;;;5023639;28;20076;-72
2023/08/24 00:26:18;;;;;;;7.45;3.72;;;18.40;99.90;;;;;;5023547;28;20022;-72
2023/08/24 00:28:44;;;;;;;10.35;3.92;;;18.40;99.90;;;;;;5024041;28;20076;-75
2023/08/24 00:31:10;;;;;;;9.85;3.90;;;18.40;99.90;;;;;;5024366;28;20726;-73
2023/08/24 00:33:35;;;;;;;7.05;3.90;;;18.30;99.90;;;;;;5022236;28;20045;-71
2023/08/24 00:36:01;;;;;;;10.80;4.03;;;18.30;99.90;;;;;;5023030;28;20038;-73
2023/08/24 00:38:27;;;;;;;9.13;4.20;;;18.30;99.90;;;;;;5024320;28;20053;-74
2023/08/24 00:40:53;;;;;;;6.13;4.10;;;18.30;99.90;;;;;;5022272;28;20486;-73
2023/08/24 00:43:23;;;;;;;8.38;4.43;;;18.30;99.90;;;;;;5022482;28;20017;-73
2023/08/24 00:45:51;;;;;;;10.65;3.90;;;18.30;99.90;;;;;;5023888;28;20022;-73
2023/08/24 00:48:17;;;;;;;11.50;4.55;;;18.20;99.90;;;;;;5023410;28;20026;-72
2023/08/24 00:50:43;;;;;;;8.30;4.10;;;18.20;99.90;;;;;;5022505;28;20495;-72
2023/08/24 00:53:08;;;;;;;11.85;4.53;;;18.20;99.90;;;;;;5023272;28;20014;-74
2023/08/24 00:55:34;;;;;;;7.82;4.25;;;18.20;99.90;;;;;;5022046;28;20061;-74
2023/08/24 00:58:01;;;;;;;10.20;4.63;;;18.10;99.90;;;;;;5022283;28;20022;-73
2023/08/24 01:00:26;;;;;;;7.05;4.38;;;18.10;99.90;;;;;;5023437;28;20037;-73
2023/08/24 01:02:52;;;;;;;9.32;4.50;;;18.10;99.90;;;;;;5023502;28;20057;-74
2023/08/24 01:05:17;;;;;;;6.70;4.63;;;18.00;99.90;;;;;;5022763;28;20033;-73
2023/08/24 01:07:43;;;;;;;9.68;4.75;;;18.00;99.90;;;;;;5023801;28;20053;-74
2023/08/24 01:10:10;;;;;;;11.32;5.32;;;18.00;99.90;;;;;;5023515;28;20068;-73
2023/08/24 01:12:45;;;;;;;13.55;5.35;;;18.00;99.90;;;;;;5022551;28;20582;-74
2023/08/24 01:15:32;;;;;;;10.25;4.93;;;17.90;99.90;;;;;;5023151;28;20040;-72
2023/08/24 01:18:04;;;;;;;10.07;5.80;;;17.90;99.90;;;;;;5020891;28;20068;-75
2023/08/24 01:20:30;;;;;;;9.30;5.65;;;17.90;99.90;;;;;;5022823;28;20030;-75
2023/08/24 01:23:22;;;;;;;8.82;5.65;;;17.90;99.90;;;;;;5021284;28;20088;-74
2023/08/24 01:26:04;;;;;;;11.65;5.22;;;17.80;99.90;;;;;;5022650;28;20046;-75
2023/08/24 01:28:31;;;;;;;11.15;5.75;;;17.80;99.90;;;;;;5021211;28;20033;-73
2023/08/24 01:30:56;;;;;;;12.00;5.95;;;17.80;99.90;;;;;;5021179;28;20022;-73
2023/08/24 01:33:22;;;;;;;8.65;5.90;;;17.80;99.90;;;;;;5023051;28;20072;-74
2023/08/24 01:35:48;;;;;;;7.47;5.32;;;17.80;99.90;;;;;;5021698;28;20030;-75
2023/08/24 01:38:15;;;;;;;12.20;5.85;;;17.80;99.90;;;;;;5021606;28;20033;-74
2023/08/24 01:41:05;;;;;;;12.70;6.25;;;17.80;99.90;;;;;;5023072;28;20116;-72
2023/08/24 01:43:35;;;;;;;10.45;5.47;;;17.70;99.90;;;;;;5021952;28;20046;-73
2023/08/24 01:46:05;;;;;;;11.80;6.03;;;17.70;99.90;;;;;;5021108;28;20025;-74
2023/08/24 01:48:31;;;;;;;12.65;6.07;;;17.70;99.90;;;;;;5022322;28;20049;-73
2023/08/24 01:50:58;;;;;;;11.45;6.15;;;17.70;99.90;;;;;;5022268;28;20533;-73
2023/08/24 01:53:24;;;;;;;7.10;5.28;;;17.60;99.90;;;;;;5022337;28;20105;-73
2023/08/24 01:55:50;;;;;;;10.80;5.47;;;17.60;99.90;;;;;;5022313;28;20034;-74
2023/08/24 01:58:16;;;;;;;11.88;6.20;;;17.60;99.90;;;;;;5022517;28;20032;-73
2023/08/24 02:00:41;;;;;;;10.93;6.20;;;17.60;99.90;;;;;;5022455;28;20037;-73
2023/08/24 02:03:07;;;;;;;8.68;5.65;;;17.50;99.90;;;;;;5022190;28;20120;-73
2023/08/24 02:05:32;;;;;;;11.20;5.70;;;17.50;99.90;;;;;;5020263;28;20021;-74
2023/08/24 02:07:59;;;;;;;12.07;5.50;;;17.50;99.90;;;;;;5022343;28;20045;-73
2023/08/24 02:10:25;;;;;;;12.88;5.53;;;17.40;99.90;;;;;;5020729;28;20080;-73
2023/08/24 02:12:51;;;;;;;7.30;4.95;;;17.40;99.90;;;;;;5021541;28;20030;-72
2023/08/24 02:15:17;;;;;;;9.52;4.95;;;17.40;99.90;;;;;;5021301;28;20026;-74
2023/08/24 02:17:43;;;;;;;9.48;5.22;;;17.40;99.90;;;;;;5021702;28;20103;-74
2023/08/24 02:20:11;;;;;;;11.00;5.38;;;17.40;99.90;;;;;;5020594;28;20066;-74
2023/08/24 02:22:37;;;;;;;11.57;5.68;;;17.40;99.90;;;;;;5020623;28;20030;-74
2023/08/24 02:25:04;;;;;;;9.98;5.60;;;17.40;99.90;;;;;;5020644;28;20086;-74
2023/08/24 02:27:30;;;;;;;9.85;5.22;;;17.40;99.90;;;;;;5020533;28;20026;-74
2023/08/24 02:29:56;;;;;;;9.10;5.00;;;17.40;99.90;;;;;;5020617;28;20049;-74
2023/08/24 02:32:22;;;;;;;9.25;5.10;;;17.40;99.90;;;;;;5020304;28;20033;-75
2023/08/24 02:34:47;;;;;;;9.50;4.82;;;17.40;99.90;;;;;;5021585;28;20048;-74
2023/08/24 02:37:13;;;;;;;9.57;5.00;;;17.40;99.90;;;;;;5022076;28;20046;-73
2023/08/24 02:39:38;;;;;;;8.50;4.80;;;17.30;99.90;;;;;;5021417;28;20073;-73
2023/08/24 02:42:04;;;;;;;10.10;4.63;;;17.30;99.90;;;;;;5021868;28;20767;-75
2023/08/24 02:44:31;;;;;;;9.80;4.38;;;17.30;99.90;;;;;;5021633;28;20026;-71
2023/08/24 02:46:57;;;;;;;9.05;4.35;;;17.20;99.90;;;;;;5021314;28;20026;-74
2023/08/24 02:49:23;;;;;;;8.70;4.90;;;17.20;99.90;;;;;;5020028;28;20033;-73
2023/08/24 02:51:48;;;;;;;8.63;4.38;;;17.20;99.90;;;;;;5020159;28;20022;-75
2023/08/24 02:54:14;;;;;;;12.50;5.00;;;17.20;99.90;;;;;;5020263;28;20054;-73
2023/08/24 02:56:40;;;;;;;9.52;5.10;;;17.20;99.90;;;;;;5020455;28;20052;-75
2023/08/24 02:59:06;;;;;;;10.70;5.07;;;17.20;99.90;;;;;;5020265;28;20030;-73
2023/08/24 03:01:31;;;;;;;9.38;4.53;;;17.20;99.90;;;;;;5020672;28;20037;-73
2023/08/24 03:03:57;;;;;;;12.18;5.40;;;17.10;99.90;;;;;;5021712;28;20026;-73
2023/08/24 03:06:26;;;;;;;9.27;5.05;;;17.10;99.90;;;;;;5021406;28;20022;-73
2023/08/24 03:08:51;;;;;;;10.07;5.30;;;17.10;99.90;;;;;;5021639;28;20018;-74
2023/08/24 03:11:17;;;;;;;6.82;4.75;;;17.10;99.90;;;;;;5020977;28;20042;-72
2023/08/24 03:13:43;;;;;;;12.27;5.88;;;17.10;99.90;;;;;;5021420;28;20026;-73
2023/08/24 03:16:09;;;;;;;8.80;5.28;;;17.10;99.90;;;;;;5019737;28;20505;-72
2023/08/24 03:18:34;;;;;;;11.00;5.75;;;17.10;99.90;;;;;;5019834;28;20529;-73
2023/08/24 03:21:01;;;;;;;11.40;5.93;;;17.10;99.90;;;;;;5021021;28;20029;-74
2023/08/24 03:23:27;;;;;;;10.32;5.25;;;17.10;99.90;;;;;;5021777;28;20026;-74
2023/08/24 03:25:53;;;;;;;9.77;5.43;;;17.10;99.90;;;;;;5021838;28;20064;-73
2023/08/24 03:28:18;;;;;;;12.95;6.22;;;17.10;99.90;;;;;;5020447;28;20024;-74
2023/08/24 03:30:50;;;;;;;13.40;5.28;;;17.10;99.90;;;;;;5021219;28;20101;-73
2023/08/24 03:33:15;;;;;;;10.98;5.43;;;17.10;99.90;;;;;;5019962;28;20069;-74
2023/08/24 03:35:41;;;;;;;14.40;6.28;;;17.10;99.90;;;;;;5021450;28;20022;-74
2023/08/24 03:38:07;;;;;;;11.02;5.43;;;17.10;99.90;;;;;;5021676;28;20030;-73
2023/08/24 03:40:32;;;;;;;12.45;5.72;;;17.10;99.90;;;;;;5021825;28;20053;-73
2023/08/24 03:42:58;;;;;;;11.43;5.95;;;17.10;99.90;;;;;;5020832;28;20022;-74
2023/08/24 03:45:24;;;;;;;13.45;6.03;;;17.10;99.90;;;;;;5019854;28;20032;-74
2023/08/24 03:47:50;;;;;;;11.05;5.60;;;17.10;99.90;;;;;;5021209;28;20056;-73
2023/08/24 03:50:16;;;;;;;10.45;6.13;;;17.10;99.90;;;;;;5021167;28;20029;-73
2023/08/24 03:52:42;;;;;;;9.98;6.05;;;17.00;99.90;;;;;;5019577;28;20052;-73
2023/08/24 03:55:08;;;;;;;12.88;6.30;;;17.00;99.90;;;;;;5021257;28;20483;-74
2023/08/24 03:57:34;;;;;;;12.40;6.18;;;17.00;99.90;;;;;;5020302;28;20026;-75
2023/08/24 04:00:00;;;;;;;20.70;6.43;;;17.00;99.90;;;;;;5020825;28;20107;-74
2023/08/24 04:02:26;;;;;;;18.80;7.47;;;17.00;99.90;;;;;;5023850;28;20309;-74
2023/08/24 04:04:52;;;;;;;13.35;7.25;;;17.00;99.90;;;;;;5024041;28;20018;-74
2023/08/24 04:07:18;;;;;;;14.95;7.97;;;17.00;99.90;;;;;;5024611;28;20096;-75
2023/08/24 04:09:45;;;;;;;14.80;7.75;;;17.00;99.90;;;;;;5024476;28;20336;-73
2023/08/24 04:12:11;;;;;;;17.35;7.75;;;17.00;99.90;;;;;;5023865;28;20014;-74
2023/08/24 04:14:36;;;;;;;13.40;7.45;;;17.00;99.90;;;;;;5024417;28;20029;-76
2023/08/24 04:17:02;;;;;;;18.67;8.43;;;17.00;99.90;;;;;;5024079;28;20026;-76
2023/08/24 04:19:27;;;;;;;14.35;7.03;;;17.00;99.90;;;;;;5022394;28;20029;-74
2023/08/24 04:21:53;;;;;;;17.42;8.10;;;17.00;99.90;;;;;;5024427;28;20022;-74
2023/08/24 04:24:18;;;;;;;15.52;8.07;;;17.00;99.90;;;;;;5022884;28;20026;-76
2023/08/24 04:26:44;;;;;;;16.55;8.00;;;17.00;99.90;;;;;;5022931;28;20545;-73
2023/08/24 04:29:10;;;;;;;13.70;7.90;;;17.00;99.90;;;;;;5024301;28;20021;-73
2023/08/24 04:31:37;;;;;;;15.15;8.10;;;17.00;99.90;;;;;;5024048;28;20033;-75
2023/08/24 04:34:04;;;;;;;14.65;8.00;;;17.00;99.90;;;;;;5020264;28;20050;-75
2023/08/24 04:36:29;;;;;;;12.27;7.90;;;17.00;99.90;;;;;;5023885;28;20021;-75
2023/08/24 04:38:55;;;;;;;22.05;7.75;;;16.90;99.90;;;;;;5023532;28;20030;-75
2023/08/24 04:41:21;;;;;;;15.75;7.75;;;17.00;99.90;;;;;;5023743;28;20076;-74
2023/08/24 04:43:46;;;;;;;14.13;7.25;;;17.00;99.90;;;;;;5023903;28;20033;-75
2023/08/24 04:46:12;;;;;;;14.07;7.57;;;17.00;99.90;;;;;;5023642;28;20057;-75
2023/08/24 04:48:37;;;;;;;17.17;7.90;;;17.00;99.90;;;;;;5022401;28;20028;-74
2023/08/24 04:51:03;;;;;;;19.08;7.97;;;16.90;99.90;;;;;;5023681;28;20029;-74
2023/08/24 04:53:29;;;;;;;17.80;8.32;;;16.90;99.90;;;;;;5023602;28;20053;-74
2023/08/24 04:55:55;;;;;;;18.13;7.88;;;16.90;99.90;;;;;;5023721;28;20026;-75
2023/08/24 04:58:23;;;;;;;18.02;9.07;;;16.90;99.90;;;;;;5022181;28;20049;-75
2023/08/24 05:00:49;;;;;;;19.80;8.07;;;16.90;99.90;;;;;;5023003;28;20034;-75
2023/08/24 05:03:14;;;;;;;17.52;8.35;;;16.90;99.90;;;;;;5023305;28;20026;-75
2023/08/24 05:05:40;;;;;;;18.67;8.23;;;16.90;99.90;;;;;;5023406;28;20490;-77
2023/08/24 05:08:06;;;;;;;19.33;8.32;;;16.90;99.90;;;;;;5023166;28;20933;-76
2023/08/24 05:10:33;;;;;;;15.05;7.90;;;16.90;99.90;;;;;;5023266;28;20026;-77
2023/08/24 05:12:59;;;;;;;15.35;8.07;;;16.90;99.90;;;;;;5021190;28;20053;-74
2023/08/24 05:15:25;;;;;;;14.98;8.63;;;17.00;99.90;;;;;;5021771;28;20030;-75
2023/08/24 05:17:55;;;;;;;13.50;8.20;;;17.00;99.90;;;;;;5021343;28;20028;-76
2023/08/24 05:20:22;;;;;;;18.50;9.23;;;17.00;99.90;;;;;;5021451;28;20041;-74
2023/08/24 05:22:48;;;;;;;14.82;8.55;;;17.00;99.90;;;;;;5021235;28;20120;-76
2023/08/24 05:25:16;;;;;;;16.20;8.48;;;17.10;99.90;;;;;;5021634;28;20034;-75
2023/08/24 05:27:42;;;;;;;16.52;8.50;;;17.10;99.90;;;;;;5021474;28;20045;-76
2023/08/24 05:30:08;;;;;;;18.85;7.97;;;17.10;99.90;;;;;;5023166;28;20080;-74
2023/08/24 05:32:38;;;;;;;15.85;7.40;;;17.20;99.90;;;;;;5021065;28;20022;-74
2023/08/24 05:35:07;;;;;;;14.48;7.03;;;17.20;99.90;;;;;;5020951;28;20046;-76
2023/08/24 05:37:33;;;;;;;15.35;7.50;;;17.20;99.90;;;;;;5022306;28;20052;-75
2023/08/24 05:40:02;;;;;;;17.42;8.82;;;17.30;99.90;;;;;;5022172;28;20037;-74
2023/08/24 05:42:28;;;;;;;15.65;7.88;;;17.30;99.90;;;;;;5020869;28;20018;-74
2023/08/24 05:44:54;;;;;;;18.15;7.80;;;17.30;99.90;;;;;;5022880;28;20074;-75
2023/08/24 05:47:19;;;;;;;17.42;8.23;;;17.40;99.90;;;;;;5020775;28;20152;-74
2023/08/24 05:49:45;;;;;;;16.20;7.32;;;17.40;99.90;;;;;;5021286;28;20037;-75
2023/08/24 05:52:11;;;;;;;14.98;8.15;;;17.50;99.90;;;;;;5020673;28;20068;-74
2023/08/24 05:54:37;;;;;;;18.20;8.07;;;17.50;99.90;;;;;;5022215;28;20021;-75
2023/08/24 05:57:03;;;;;;;17.33;7.85;;;17.50;99.90;;;;;;5022506;28;20532;-75
2023/08/24 05:59:29;;;;;;;17.92;8.50;;;17.50;99.90;;;;;;5022269;28;20100;-75
2023/08/24 06:01:55;;;;;;;14.43;7.55;;;17.50;99.90;;;;;;5020992;28;20026;-75
2023/08/24 06:04:21;;;;;;;19.60;8.43;;;17.50;99.90;;;;;;5020469;28;20023;-76
2023/08/24 06:06:47;;;;;;;20.17;8.90;;;17.50;99.90;;;;;;5022351;28;20030;-75
2023/08/24 06:09:12;;;;;;;17.88;8.43;;;17.60;99.90;;;;;;5020829;28;20030;-76
2023/08/24 06:11:38;;;;;;;18.80;8.75;;;17.60;99.90;;;;;;5021011;28;20030;-74
2023/08/24 06:14:03;;;;;;;22.73;9.18;;;17.60;99.90;;;;;;5020669;28;20026;-75
2023/08/24 06:16:29;;;;;;;18.13;9.70;;;17.50;99.90;;;;;;5021639;28;20532;-74
2023/08/24 06:18:55;;;;;;;16.27;9.43;;;17.50;99.90;;;;;;5021426;28;20080;-75
2023/08/24 06:21:21;;;;;;;18.08;9.75;;;17.50;99.90;;;;;;5021826;28;20048;-75
2023/08/24 06:23:47;;;;;;;17.27;8.88;;;17.50;99.90;;;;;;5020074;28;20117;-73
2023/08/24 06:26:13;;;;;;;16.02;8.70;;;17.60;99.90;;;;;;5020296;28;20089;-74
2023/08/24 06:28:39;;;;;;;22.42;9.40;;;17.60;99.90;;;;;;5020340;28;20026;-75
2023/08/24 06:31:07;;;;;;;15.15;8.80;;;17.60;99.90;;;;;;5021104;28;20022;-76
2023/08/24 06:33:38;;;;;;;16.58;9.00;;;17.60;99.90;;;;;;5020320;28;20049;-75
2023/08/24 06:36:12;;;;;;;15.25;8.57;;;17.70;99.90;;;;;;5020592;28;20026;-75
2023/08/24 06:38:37;;;;;;;15.82;7.90;;;17.70;99.90;;;;;;5020308;28;20098;-75
2023/08/24 06:41:03;;;;;;;12.25;7.10;;;17.80;99.90;;;;;;5020136;28;20076;-74
2023/08/24 06:43:29;;;;;;;12.90;6.43;;;17.80;99.90;;;;;;5021472;28;20085;-75
2023/08/24 06:45:55;;;;;;;18.70;8.30;;;17.80;99.90;;;;;;5022025;28;20059;-76
2023/08/24 06:48:21;;;;;;;13.25;6.43;;;17.90;99.90;;;;;;5020338;28;20033;-75
2023/08/24 06:50:46;;;;;;;10.77;5.10;;;17.90;99.90;;;;;;5021513;28;20032;-75
2023/08/24 06:53:12;;;;;;;10.63;5.32;;;18.00;99.90;;;;;;5021945;28;20057;-75
2023/08/24 06:55:37;;;;;;;8.98;4.22;;;18.00;99.90;;;;;;5021707;28;20420;-76
2023/08/24 06:58:05;;;;;;;11.73;5.97;;;18.10;99.90;;;;;;5019940;28;20034;-76
2023/08/24 07:00:31;;;;;;;10.15;5.20;;;18.20;99.90;;;;;;5021531;28;20363;-75
2023/08/24 07:02:57;;;;;;;14.25;6.55;;;18.20;99.90;;;;;;5021018;28;20022;-75
2023/08/24 07:05:23;;;;;;;11.43;4.78;;;18.30;99.90;;;;;;5019787;28;20022;-74
2023/08/24 07:07:51;;;;;;;8.23;4.68;;;18.30;99.90;;;;;;5021717;28;20114;-75
2023/08/24 07:10:17;;;;;;;12.30;5.28;;;18.40;99.90;;;;;;5021266;28;20033;-77
2023/08/24 07:12:44;;;;;;;12.15;4.70;;;18.40;99.90;;;;;;5020822;28;20048;-75
2023/08/24 07:15:11;;;;;;;10.10;4.20;;;18.50;99.90;;;;;;5021459;28;20383;-74
2023/08/24 07:17:37;;;;;;;11.25;4.85;;;18.60;99.90;;;;;;5019534;28;20058;-75
2023/08/24 07:20:05;;;;;;;7.43;3.80;;;18.70;99.90;;;;;;5019490;28;20399;-76
2023/08/24 07:22:31;;;;;;;12.73;4.28;;;18.80;99.90;;;;;;5020089;28;20044;-73
2023/08/24 07:24:57;;;;;;;9.32;3.95;;;18.90;99.90;;;;;;5021082;28;20022;-73
2023/08/24 07:27:22;;;;;;;10.73;4.70;;;19.00;99.90;;;;;;5021280;28;20064;-74
2023/08/24 07:29:48;;;;;;;15.38;5.43;;;19.10;99.90;;;;;;5020149;28;20033;-75
2023/08/24 07:32:14;;;;;;;12.82;5.07;;;19.10;99.90;;;;;;5021097;28;20088;-75
2023/08/24 07:34:39;;;;;;;13.68;5.72;;;19.20;99.90;;;;;;5019128;28;20057;-76
2023/08/24 07:37:05;;;;;;;12.02;4.90;;;19.20;99.90;;;;;;5022421;28;20056;-75
2023/08/24 07:39:30;;;;;;;6.07;3.95;;;19.30;99.90;;;;;;5023075;28;20044;-74
2023/08/24 07:41:58;;;;;;;12.48;5.50;;;19.30;99.90;;;;;;5018831;28;20417;-74
2023/08/24 07:44:24;;;;;;;11.32;5.32;;;19.30;99.90;;;;;;5022878;28;20042;-74
2023/08/24 07:46:49;;;;;;;11.65;5.70;;;19.30;99.90;;;;;;5021830;28;20021;-76
2023/08/24 07:49:16;;;;;;;10.70;5.00;;;19.40;99.90;;;;;;5021392;28;20463;-76
2023/08/24 07:51:44;;;;;;;11.13;4.63;;;19.40;99.90;;;;;;5022453;28;20025;-75
2023/08/24 07:54:10;;;;;;;10.70;5.18;;;19.50;99.90;;;;;;5021450;28;20026;-74
2023/08/24 07:56:36;;;;;;;10.77;4.82;;;19.50;99.90;;;;;;5021201;28;20026;-74
2023/08/24 07:59:01;;;;;;;9.02;5.00;;;19.60;99.90;;;;;;5021742;28;20038;-74
2023/08/24 08:01:27;;;;;;;7.97;4.32;;;19.60;99.90;;;;;;5022035;28;20034;-75
2023/08/24 08:03:53;;;;;;;9.75;4.35;;;19.70;99.90;;;;;;5023305;28;20029;-75
2023/08/24 08:06:18;;;;;;;9.85;4.13;;;19.80;99.90;;;;;;5023159;28;20033;-74
2023/08/24 08:08:46;;;;;;;8.45;3.50;;;19.90;99.90;;;;;;5023516;28;20026;-75
2023/08/24 08:11:12;;;;;;;6.38;3.40;;;19.90;99.90;;;;;;5024232;28;20061;-76
2023/08/24 08:13:37;;;;;;;7.75;4.22;;;20.00;99.90;;;;;;5024000;28;20030;-73
2023/08/24 08:16:04;;;;;;;9.68;4.25;;;20.00;99.90;;;;;;5022675;28;20024;-74
2023/08/24 08:18:34;;;;;;;7.65;4.40;;;20.10;99.90;;;;;;5019672;28;20041;-75
2023/08/24 08:20:59;;;;;;;10.02;5.28;;;20.20;99.90;;;;;;5021055;28;20066;-75
2023/08/24 08:23:25;;;;;;;8.55;4.95;;;20.20;99.90;;;;;;5020668;28;20029;-76
2023/08/24 08:25:51;;;;;;;13.02;6.82;;;20.30;99.90;;;;;;5023548;28;20049;-76
2023/08/24 08:28:17;;;;;;;9.65;5.28;;;20.40;99.90;;;;;;5022249;28;20056;-76
2023/08/24 08:30:44;;;;;;;9.70;5.97;;;20.50;99.90;;;;;;5023271;28;20029;-77
2023/08/24 08:33:10;;;;;;;6.97;4.40;;;20.60;99.90;;;;;;5021214;28;20048;-76
2023/08/24 08:35:37;;;;;;;8.70;3.58;;;20.80;99.90;;;;;;5020941;28;20050;-76
2023/08/24 08:38:02;;;;;;;9.07;4.57;;;21.00;99.90;;;;;;5023728;28;20411;-75
2023/08/24 08:40:30;;;;;;;7.05;3.75;;;21.10;99.90;;;;;;5021849;28;20069;-76
2023/08/24 08:42:57;;;;;;;9.90;4.03;;;21.20;99.90;;;;;;5019172;28;20442;-74
2023/08/24 08:45:26;;;;;;;8.25;3.67;;;21.30;99.90;;;;;;5019843;28;20084;-76
2023/08/24 08:47:55;;;;;;;8.43;4.53;;;21.40;99.90;;;;;;5020392;28;20167;-79
2023/08/24 08:50:21;;;;;;;10.98;5.57;;;21.60;99.90;;;;;;5020589;28;20032;-77
2023/08/24 08:52:47;;;;;;;10.45;4.38;;;21.70;99.90;;;;;;5024003;28;20022;-79
2023/08/24 08:55:15;;;;;;;9.82;4.03;;;21.80;99.90;;;;;;5022352;28;20089;-77
2023/08/24 08:57:42;;;;;;;8.55;4.45;;;21.90;99.90;;;;;;5022638;28;20560;-77
2023/08/24 09:00:14;;;;;;;14.05;4.53;;;21.90;99.90;;;;;;5022177;28;20038;-76
2023/08/24 09:02:44;;;;;;;13.75;4.72;;;22.00;99.90;;;;;;5029073;28;20030;-81
2023/08/24 09:05:10;;;;;;;7.80;3.63;;;22.00;99.90;;;;;;5022040;28;20052;-77
2023/08/24 09:07:39;;;;;;;8.68;5.28;;;22.00;99.90;;;;;;5022231;28;20146;-74
2023/08/24 09:10:06;;;;;;;7.88;4.15;;;22.00;99.90;;;;;;5023034;28;20026;-77
2023/08/24 09:12:35;;;;;;;6.88;4.00;;;22.00;99.90;;;;;;5021893;28;20030;-77
2023/08/24 09:15:06;;;;;;;10.25;4.47;;;22.00;99.90;;;;;;5022042;28;20046;-77
2023/08/24 09:17:33;;;;;;;8.88;4.75;;;21.90;99.90;;;;;;5022995;28;20053;-75
2023/08/24 09:20:00;;;;;;;9.48;4.07;;;21.90;99.90;;;;;;5021183;28;20510;-77
2023/08/24 09:22:26;;;;;;;9.35;3.50;;;21.90;99.90;;;;;;5021814;28;20029;-75
2023/08/24 09:24:52;;;;;;;9.65;4.28;;;21.90;99.90;;;;;;5021211;28;20026;-76
2023/08/24 09:27:20;;;;;;;7.75;3.80;;;21.90;99.90;;;;;;5023249;28;20026;-77
2023/08/24 09:29:50;;;;;;;8.82;4.50;;;22.00;99.90;;;;;;5021853;28;20022;-77
2023/08/24 09:32:21;;;;;;;10.00;3.63;;;22.10;99.90;;;;;;5021702;28;20386;-76
2023/08/24 09:34:47;;;;;;;8.45;3.60;;;22.20;99.90;;;;;;5022939;28;20048;-74
2023/08/24 09:37:15;;;;;;;12.40;4.40;;;22.40;99.90;;;;;;5021802;28;20046;-76
2023/08/24 09:39:40;;;;;;;8.45;5.18;;;22.50;99.90;;;;;;5022556;28;20029;-75
2023/08/24 09:42:06;;;;;;;9.88;4.97;;;22.60;99.90;;;;;;5023179;28;20021;-76
2023/08/24 09:44:32;;;;;;;10.23;4.85;;;22.60;99.90;;;;;;5022694;28;20032;-76
2023/08/24 09:46:57;;;;;;;11.23;5.25;;;22.70;99.90;;;;;;5021251;28;20491;-76
2023/08/24 09:49:23;;;;;;;14.15;6.40;;;22.70;99.90;;;;;;5020985;28;20101;-77
2023/08/24 09:51:50;;;;;;;9.57;5.13;;;22.70;99.90;;;;;;5020156;28;20068;-76
2023/08/24 09:54:21;;;;;;;8.95;4.55;;;22.80;99.90;;;;;;5022841;28;20030;-76
2023/08/24 09:56:50;;;;;;;7.72;4.90;;;22.80;99.90;;;;;;5022450;28;20033;-78
2023/08/24 09:59:24;;;;;;;19.15;6.57;;;22.90;99.90;;;;;;5020955;28;20052;-80
2023/08/24 10:01:51;;;;;;;12.68;5.70;;;22.90;99.90;;;;;;5021340;28;20056;-75
2023/08/24 10:04:29;;;;;;;15.40;4.70;;;22.90;99.90;;;;;;5021184;28;20053;-76
2023/08/24 10:07:02;;;;;;;11.32;6.18;;;22.90;99.90;;;;;;5019801;28;20096;-76
2023/08/24 10:09:39;;;;;;;12.13;5.40;;;23.00;99.90;;;;;;5021180;28;20371;-77
2023/08/24 10:12:20;;;;;;;13.73;5.95;;;23.00;99.90;;;;;;5020159;28;20034;-74
2023/08/24 10:15:00;;;;;;;11.02;5.75;;;23.00;99.90;;;;;;5021728;28;20460;-77
2023/08/24 10:17:26;;;;;;;7.97;5.07;;;23.10;99.90;;;;;;5020153;28;20106;-76
2023/08/24 10:19:53;;;;;;;10.88;5.50;;;23.10;99.90;;;;;;5019576;28;20057;-75
2023/08/24 10:22:20;;;;;;;10.95;5.47;;;23.20;99.90;;;;;;5019909;28;20041;-76
2023/08/24 10:24:47;;;;;;;11.15;5.90;;;23.30;99.90;;;;;;5021462;28;20029;-78
2023/08/24 10:27:14;;;;;;;8.70;4.18;;;23.40;99.90;;;;;;5020933;28;20026;-76
2023/08/24 10:29:39;;;;;;;9.10;5.10;;;23.50;99.90;;;;;;5020315;28;20542;-75
2023/08/24 10:32:06;;;;;;;14.93;5.63;;;23.70;99.90;;;;;;5020067;28;20056;-78
2023/08/24 10:34:32;;;;;;;11.57;4.07;;;23.70;99.90;;;;;;5020358;28;20136;-75
2023/08/24 10:37:10;;;;;;;10.55;5.22;;;23.80;99.90;;;;;;5019986;28;20446;-76
2023/08/24 10:39:40;;;;;;;11.15;4.65;;;23.80;99.90;;;;;;5018504;28;20038;-76
2023/08/24 10:42:11;;;;;;;8.80;4.43;;;23.90;99.90;;;;;;5018867;28;20112;-76
2023/08/24 10:44:39;;;;;;;7.38;3.83;;;23.90;99.90;;;;;;5020940;28;20481;-76
2023/08/24 10:47:14;;;;;;;7.47;3.40;;;23.90;99.90;;;;;;5020938;28;20046;-76
2023/08/24 10:49:41;;;;;;;9.23;3.90;;;24.00;99.90;;;;;;5018935;28;20068;-76
2023/08/24 10:52:21;;;;;;;8.73;5.22;;;24.10;99.90;;;;;;5020706;28;20124;-74
2023/08/24 10:54:51;;;;;;;10.18;5.03;;;24.20;99.90;;;;;;5020334;28;20041;-75
2023/08/24 10:57:20;;;;;;;10.65;5.47;;;24.20;99.90;;;;;;5021287;28;20395;-77
2023/08/24 11:00:10;;;;;;;8.70;5.10;;;24.30;99.90;;;;;;5028512;28;20061;-77
2023/08/24 11:02:50;;;;;;;10.80;5.43;;;24.30;99.90;;;;;;5019874;28;20044;-75
2023/08/24 11:05:17;;;;;;;11.27;5.63;;;24.30;99.90;;;;;;5022172;28;20079;-73
2023/08/24 11:07:50;;;;;;;10.05;5.30;;;24.40;99.90;;;;;;5020104;28;20022;-75
2023/08/24 11:10:16;;;;;;;7.85;4.20;;;24.40;99.90;;;;;;5021516;28;20141;-75
2023/08/24 11:13:03;;;;;;;8.18;4.72;;;24.40;99.90;;;;;;5023030;28;20022;-77
2023/08/24 11:15:40;;;;;;;8.52;4.28;;;24.50;99.90;;;;;;5024211;28;20040;-75
2023/08/24 11:18:22;;;;;;;13.85;4.82;;;24.60;99.90;;;;;;5040495;28;20065;-74
2023/08/24 11:21:04;;;;;;;13.15;5.85;;;24.70;99.90;;;;;;5025416;28;20033;-77
2023/08/24 11:23:30;;;;;;;11.00;4.40;;;24.70;99.90;;;;;;5024921;28;20026;-77
2023/08/24 11:25:57;;;;;;;13.27;4.43;;;24.70;99.90;;;;;;5024195;28;20366;-74
2023/08/24 11:28:28;;;;;;;8.18;4.35;;;24.70;99.90;;;;;;5024699;28;20080;-76
2023/08/24 11:30:55;;;;;;;10.10;4.88;;;24.80;99.90;;;;;;5025068;28;20021;-75
2023/08/24 11:33:34;;;;;;;9.18;4.25;;;24.90;99.90;;;;;;5024799;28;20045;-75
2023/08/24 11:36:03;;;;;;;8.10;4.20;;;25.00;99.90;;;;;;5038240;28;20060;-75
2023/08/24 11:38:42;;;;;;;10.75;4.88;;;25.20;99.90;;;;;;5022864;28;20022;-74
2023/08/24 11:41:15;;;;;;;9.15;4.20;;;25.20;99.90;;;;;;5022251;28;20042;-75
2023/08/24 11:43:42;;;;;;;7.57;4.18;;;25.20;99.90;;;;;;5022034;28;20620;-76
2023/08/24 11:46:08;;;;;;;8.75;3.90;;;25.40;99.90;;;;;;5024367;28;20030;-75
2023/08/24 11:48:33;;;;;;;6.70;3.90;;;25.60;99.90;;;;;;5022706;28;20041;-74
2023/08/24 11:50:59;;;;;;;12.18;4.85;;;25.70;99.90;;;;;;5022888;28;21065;-73
2023/08/24 11:53:26;;;;;;;6.43;3.58;;;26.00;99.90;;;;;;5023298;28;20097;-76
2023/08/24 11:55:55;;;;;;;13.25;5.07;;;26.10;99.90;;;;;;5023560;28;20030;-74
2023/08/24 11:58:20;;;;;;;13.07;4.07;;;26.20;99.90;;;;;;5024420;28;20045;-77
2023/08/24 12:00:46;;;;;;;11.25;4.65;;;26.10;99.90;;;;;;5024569;28;20038;-76
2023/08/24 12:03:15;;;;;;;9.68;4.88;;;26.00;99.90;;;;;;5023454;28;20032;-79
2023/08/24 12:05:41;;;;;;;10.00;4.75;;;25.90;99.90;;;;;;5022901;28;20479;-75
2023/08/24 12:08:06;;;;;;;10.85;4.10;;;25.90;99.90;;;;;;5023229;28;20048;-74
2023/08/24 12:10:32;;;;;;;12.27;4.32;;;26.00;99.90;;;;;;5023196;28;20029;-74
2023/08/24 12:13:05;;;;;;;10.82;4.45;;;26.10;99.90;;;;;;5024263;28;20018;-78
2023/08/24 12:15:34;;;;;;;7.78;3.97;;;26.30;99.90;;;;;;5022625;28;20018;-75
2023/08/24 12:18:10;;;;;;;9.35;5.20;;;26.40;99.90;;;;;;5023856;28;20021;-75
2023/08/24 12:20:36;;;;;;;10.90;3.95;;;26.40;99.90;;;;;;5022450;28;20105;-75
2023/08/24 12:23:02;;;;;;;8.60;4.25;;;26.40;99.90;;;;;;5021547;28;20064;-75
2023/08/24 12:25:28;;;;;;;10.07;3.65;;;26.30;99.90;;;;;;5023774;28;20029;-76
2023/08/24 12:28:09;;;;;;;8.57;3.92;;;26.30;99.90;;;;;;5023565;28;20026;-74
2023/08/24 12:30:52;;;;;;;15.38;4.25;;;26.20;99.90;;;;;;5024178;28;20047;-77
2023/08/24 12:33:26;;;;;;;8.02;4.32;;;26.00;99.90;;;;;;5022045;28;20042;-74
2023/08/24 12:35:53;;;;;;;10.15;4.38;;;25.90;99.90;;;;;;5022647;28;20402;-75
2023/08/24 12:38:18;;;;;;;7.88;4.10;;;25.70;99.90;;;;;;5022196;28;20026;-76
2023/08/24 12:40:44;;;;;;;7.35;4.07;;;25.50;99.90;;;;;;5022252;28;20110;-77
2023/08/24 12:43:10;;;;;;;7.03;4.10;;;25.40;99.90;;;;;;5022746;28;20018;-77